BAW5VY EGLL-CYVR
Flight info
| Callsign | BAW5VY |
|---|---|
| Flight time | N/A |
| Altitude | 36000 |
| Route | UMLAT1G UMLAT T418 WELIN T420 TNT UL28 RODOL UM65 TENSO L603 BELOX DCT REMSI DCT MASOP DCT NELBO DCT GOTNA DCT DONIB DCT GOMUP/M082F360 DCT 59N020W 61N030W 61N040W 59N050W/M082F380 DCT AVUTI/N0472F380 DCT LOMTA DCT KLIPS DCT LENUT/N0489F400 DCT 58N090W DCT MITOB DCT PETMA DCT EXDEE DCT MERYT DCT BOOTH CANUC6 |
| Aircraft | B772/H-SDE1E3FGHIJ3J5J6M1M2P2RWXYZ/LB1D1 |
Departure
| Time | 2026-05-04 08:51 |
|---|---|
| Airport | London Heathrow Airport (EGLL) |
Arrival
| Time | N/A |
|---|---|
| Airport | Vancouver International Airport (CYVR) |
| Time | Latitude | Longitude | Altitude | Speed | Heading |
|---|---|---|---|---|---|
| 2026-05-04 08:10 | 51.47128 | -0.48019 | 96 ft | 0 kts | 270° |
| 2026-05-04 08:37 | 51.47128 | -0.48018 | 97 ft | 1 kts | 270° |
| 2026-05-04 08:38 | 51.47127 | -0.47995 | 97 ft | 3 kts | 270° |
| 2026-05-04 08:38 | 51.47127 | -0.47963 | 97 ft | 3 kts | 270° |
| 2026-05-04 08:38 | 51.47127 | -0.47936 | 97 ft | 3 kts | 267° |
| 2026-05-04 08:40 | 51.47191 | -0.47871 | 96 ft | 0 kts | 180° |
| 2026-05-04 08:42 | 51.47167 | -0.47872 | 96 ft | 7 kts | 181° |
| 2026-05-04 08:42 | 51.47084 | -0.47872 | 96 ft | 17 kts | 178° |
| 2026-05-04 08:42 | 51.46951 | -0.47868 | 96 ft | 19 kts | 180° |
| 2026-05-04 08:43 | 51.46832 | -0.47867 | 96 ft | 17 kts | 179° |
| 2026-05-04 08:43 | 51.46729 | -0.47866 | 96 ft | 12 kts | 180° |
| 2026-05-04 08:43 | 51.46656 | -0.47828 | 96 ft | 12 kts | 117° |
| 2026-05-04 08:43 | 51.46649 | -0.47702 | 96 ft | 11 kts | 88° |
| 2026-05-04 08:44 | 51.46650 | -0.47574 | 96 ft | 12 kts | 90° |
| 2026-05-04 08:44 | 51.46650 | -0.47446 | 96 ft | 11 kts | 90° |
| 2026-05-04 08:46 | 51.46655 | -0.45974 | 96 ft | 16 kts | 90° |
| 2026-05-04 08:46 | 51.46656 | -0.45796 | 96 ft | 15 kts | 89° |
| 2026-05-04 08:46 | 51.46657 | -0.45629 | 96 ft | 15 kts | 89° |
| 2026-05-04 08:46 | 51.46658 | -0.45446 | 96 ft | 21 kts | 90° |
| 2026-05-04 08:47 | 51.46658 | -0.45170 | 96 ft | 23 kts | 90° |
| 2026-05-04 08:47 | 51.46658 | -0.44932 | 96 ft | 21 kts | 88° |
| 2026-05-04 08:47 | 51.46660 | -0.44704 | 96 ft | 20 kts | 90° |
| 2026-05-04 08:47 | 51.46659 | -0.44522 | 96 ft | 15 kts | 90° |
| 2026-05-04 08:48 | 51.46659 | -0.44359 | 96 ft | 14 kts | 89° |
| 2026-05-04 08:48 | 51.46660 | -0.44263 | 96 ft | 6 kts | 88° |
| 2026-05-04 08:48 | 51.46661 | -0.44200 | 96 ft | 6 kts | 89° |
| 2026-05-04 08:48 | 51.46661 | -0.44131 | 96 ft | 11 kts | 90° |
| 2026-05-04 08:49 | 51.46662 | -0.43926 | 96 ft | 21 kts | 89° |
| 2026-05-04 08:50 | 51.46488 | -0.43925 | 97 ft | 43 kts | 272° |
| 2026-05-04 08:50 | 51.46489 | -0.44804 | 97 ft | 114 kts | 269° |
| 2026-05-04 08:51 | 51.46483 | -0.46478 | 119 ft | 183 kts | 269° |
| 2026-05-04 08:51 | 51.46433 | -0.48581 | 939 ft | 189 kts | 267° |
| 2026-05-04 08:51 | 51.46498 | -0.50693 | 1801 ft | 194 kts | 279° |
| 2026-05-04 08:51 | 51.46891 | -0.52839 | 2314 ft | 208 kts | 291° |
| 2026-05-04 08:52 | 51.47646 | -0.54939 | 2438 ft | 227 kts | 307° |
| 2026-05-04 08:52 | 51.48629 | -0.57052 | 2611 ft | 246 kts | 302° |
| 2026-05-04 08:52 | 51.49469 | -0.59521 | 3046 ft | 256 kts | 298° |
| 2026-05-04 08:52 | 51.50257 | -0.62120 | 3579 ft | 262 kts | 296° |
| 2026-05-04 08:53 | 51.51006 | -0.64816 | 4146 ft | 266 kts | 294° |
| 2026-05-04 08:54 | 51.62741 | -0.68665 | 6633 ft | 280 kts | 355° |
| 2026-05-04 08:55 | 51.64693 | -0.68955 | 7223 ft | 282 kts | 354° |
| 2026-05-04 08:55 | 51.66648 | -0.69296 | 7815 ft | 283 kts | 353° |
| 2026-05-04 08:55 | 51.68617 | -0.69640 | 8359 ft | 286 kts | 354° |
| 2026-05-04 08:55 | 51.70621 | -0.69891 | 8865 ft | 290 kts | 355° |
| 2026-05-04 08:57 | 51.85136 | -0.71400 | 12716 ft | 308 kts | 355° |
| 2026-05-04 09:01 | 52.19890 | -0.82664 | 16024 ft | 391 kts | 341° |
| 2026-05-04 09:01 | 52.23288 | -0.84627 | 16026 ft | 390 kts | 336° |
| 2026-05-04 09:01 | 52.25751 | -0.86502 | 16027 ft | 390 kts | 332° |
| 2026-05-04 09:01 | 52.28148 | -0.88564 | 16026 ft | 390 kts | 329° |
| 2026-05-04 09:02 | 52.29706 | -0.90021 | 16026 ft | 389 kts | 328° |
| 2026-05-04 09:02 | 52.32029 | -0.92327 | 16147 ft | 393 kts | 327° |
| 2026-05-04 09:02 | 52.34352 | -0.94692 | 16883 ft | 395 kts | 327° |
| 2026-05-04 09:02 | 52.36698 | -0.97063 | 17566 ft | 397 kts | 327° |
| 2026-05-04 09:03 | 52.39068 | -0.99443 | 18162 ft | 402 kts | 327° |
| 2026-05-04 09:03 | 52.41454 | -1.01835 | 18798 ft | 405 kts | 327° |
| 2026-05-04 09:03 | 52.43870 | -1.04255 | 19386 ft | 408 kts | 327° |
| 2026-05-04 09:03 | 52.46296 | -1.06685 | 19959 ft | 412 kts | 327° |
| 2026-05-04 09:04 | 52.48763 | -1.09161 | 20526 ft | 415 kts | 327° |
| 2026-05-04 09:04 | 52.50925 | -1.11345 | 21046 ft | 418 kts | 327° |
| 2026-05-04 09:04 | 52.53407 | -1.13863 | 21592 ft | 421 kts | 327° |
| 2026-05-04 09:04 | 52.55916 | -1.16413 | 22144 ft | 424 kts | 327° |
| 2026-05-04 09:05 | 52.58441 | -1.18966 | 22668 ft | 428 kts | 327° |
| 2026-05-04 09:05 | 52.60958 | -1.21501 | 23184 ft | 431 kts | 327° |
| 2026-05-04 09:05 | 52.63525 | -1.24106 | 23689 ft | 434 kts | 327° |
| 2026-05-04 09:05 | 52.66104 | -1.26730 | 24175 ft | 437 kts | 327° |
| 2026-05-04 09:06 | 52.68701 | -1.29372 | 24653 ft | 440 kts | 327° |
| 2026-05-04 09:07 | 52.87171 | -1.48157 | 27899 ft | 450 kts | 328° |
| 2026-05-04 09:08 | 52.89841 | -1.50907 | 28202 ft | 454 kts | 328° |
| 2026-05-04 09:08 | 52.92535 | -1.53686 | 28508 ft | 457 kts | 329° |
| 2026-05-04 09:08 | 52.95194 | -1.56433 | 28941 ft | 457 kts | 329° |
| 2026-05-04 09:08 | 52.97890 | -1.59222 | 29308 ft | 458 kts | 329° |
| 2026-05-04 09:09 | 53.00605 | -1.62032 | 29630 ft | 460 kts | 330° |
| 2026-05-04 09:09 | 53.03328 | -1.64850 | 29938 ft | 462 kts | 330° |
| 2026-05-04 09:09 | 53.06058 | -1.67681 | 30248 ft | 464 kts | 330° |
| 2026-05-04 09:09 | 53.08809 | -1.70517 | 30536 ft | 465 kts | 330° |
| 2026-05-04 09:10 | 53.11564 | -1.73378 | 30807 ft | 467 kts | 330° |
| 2026-05-04 09:10 | 53.14323 | -1.76261 | 31049 ft | 469 kts | 330° |
| 2026-05-04 09:10 | 53.17090 | -1.79160 | 31299 ft | 470 kts | 330° |
| 2026-05-04 09:10 | 53.19862 | -1.82066 | 31553 ft | 471 kts | 331° |
| 2026-05-04 09:11 | 53.22633 | -1.84971 | 31922 ft | 469 kts | 331° |
| 2026-05-04 09:11 | 53.25389 | -1.87848 | 32289 ft | 467 kts | 332° |
| 2026-05-04 09:11 | 53.28194 | -1.90581 | 32596 ft | 465 kts | 334° |
| 2026-05-04 09:11 | 53.31026 | -1.93199 | 32900 ft | 464 kts | 335° |
| 2026-05-04 09:12 | 53.33856 | -1.95767 | 33223 ft | 463 kts | 335° |
| 2026-05-04 09:12 | 53.36639 | -1.98323 | 33510 ft | 462 kts | 335° |
| 2026-05-04 09:14 | 53.56194 | -2.17038 | 35262 ft | 463 kts | 333° |
| 2026-05-04 09:14 | 53.58851 | -2.20144 | 35390 ft | 469 kts | 322° |
| 2026-05-04 09:14 | 53.61090 | -2.24186 | 35628 ft | 474 kts | 310° |
| 2026-05-04 09:14 | 53.62728 | -2.29028 | 35894 ft | 479 kts | 296° |
| 2026-05-04 09:15 | 53.63858 | -2.34329 | 36082 ft | 481 kts | 290° |
| 2026-05-04 09:15 | 53.65809 | -2.45113 | 36082 ft | 481 kts | 290° |
| 2026-05-04 09:17 | 53.76371 | -2.92563 | 36083 ft | 481 kts | 293° |
| 2026-05-04 09:18 | 53.78773 | -3.03136 | 36082 ft | 481 kts | 294° |
| 2026-05-04 09:18 | 53.81144 | -3.13727 | 36083 ft | 481 kts | 292° |
| 2026-05-04 09:19 | 53.83461 | -3.24361 | 36082 ft | 481 kts | 292° |
| 2026-05-04 09:19 | 53.85771 | -3.35017 | 36080 ft | 481 kts | 292° |
| 2026-05-04 09:20 | 53.88079 | -3.45661 | 36078 ft | 482 kts | 292° |
| 2026-05-04 09:20 | 53.90401 | -3.56311 | 36076 ft | 481 kts | 293° |
| 2026-05-04 09:21 | 53.92678 | -3.66940 | 36076 ft | 481 kts | 292° |
| 2026-05-04 09:21 | 53.94949 | -3.77637 | 36075 ft | 481 kts | 293° |
| 2026-05-04 09:22 | 53.97848 | -3.87800 | 36077 ft | 477 kts | 303° |
| 2026-05-04 09:22 | 54.01466 | -3.97241 | 36076 ft | 477 kts | 307° |
| 2026-05-04 09:23 | 54.05069 | -4.06708 | 36076 ft | 476 kts | 305° |
| 2026-05-04 09:23 | 54.08579 | -4.16263 | 36077 ft | 476 kts | 305° |
| 2026-05-04 09:25 | 54.22432 | -4.54594 | 36082 ft | 474 kts | 304° |
| 2026-05-04 09:26 | 54.25831 | -4.64229 | 36082 ft | 473 kts | 304° |
| 2026-05-04 09:26 | 54.29222 | -4.73870 | 36084 ft | 472 kts | 303° |
| 2026-05-04 09:27 | 54.32607 | -4.83504 | 36085 ft | 471 kts | 304° |
| 2026-05-04 09:27 | 54.36082 | -4.93017 | 36088 ft | 471 kts | 304° |
| 2026-05-04 09:28 | 54.39459 | -5.02651 | 36091 ft | 470 kts | 303° |
| 2026-05-04 09:28 | 54.42782 | -5.12267 | 36094 ft | 470 kts | 303° |
| 2026-05-04 09:29 | 54.46119 | -5.21941 | 36097 ft | 470 kts | 303° |
| 2026-05-04 09:29 | 54.49459 | -5.31628 | 36101 ft | 470 kts | 303° |
| 2026-05-04 09:30 | 54.52882 | -5.41129 | 36104 ft | 470 kts | 304° |
| 2026-05-04 09:30 | 54.56305 | -5.50756 | 36107 ft | 470 kts | 304° |
| 2026-05-04 09:31 | 54.59853 | -5.60198 | 36109 ft | 468 kts | 310° |
| 2026-05-04 09:31 | 54.64112 | -5.68662 | 36111 ft | 467 kts | 316° |
| 2026-05-04 09:32 | 54.68677 | -5.76654 | 36111 ft | 466 kts | 317° |
| 2026-05-04 09:34 | 54.86586 | -6.08838 | 36109 ft | 463 kts | 316° |
| 2026-05-04 09:34 | 54.91049 | -6.16887 | 36107 ft | 462 kts | 316° |
| 2026-05-04 09:35 | 54.95475 | -6.24966 | 36103 ft | 461 kts | 315° |
| 2026-05-04 09:35 | 54.99881 | -6.33059 | 36107 ft | 460 kts | 315° |
| 2026-05-04 09:37 | 55.17376 | -6.65509 | 36106 ft | 458 kts | 315° |
| 2026-05-04 09:38 | 55.21730 | -6.73655 | 36105 ft | 457 kts | 314° |
| 2026-05-04 09:38 | 55.26073 | -6.81808 | 36104 ft | 458 kts | 314° |
| 2026-05-04 09:39 | 55.30414 | -6.89987 | 36104 ft | 457 kts | 314° |
| 2026-05-04 09:39 | 55.34712 | -6.98113 | 36103 ft | 456 kts | 314° |
| 2026-05-04 09:40 | 55.39037 | -7.06316 | 36103 ft | 457 kts | 314° |
| 2026-05-04 09:40 | 55.43353 | -7.14532 | 36102 ft | 456 kts | 314° |
| 2026-05-04 09:42 | 55.60491 | -7.47341 | 36116 ft | 454 kts | 313° |
| 2026-05-04 09:43 | 55.64732 | -7.55602 | 36115 ft | 453 kts | 313° |
| 2026-05-04 09:43 | 55.68964 | -7.63862 | 36115 ft | 452 kts | 313° |
| 2026-05-04 09:44 | 55.73180 | -7.72026 | 36114 ft | 451 kts | 314° |
| 2026-05-04 09:46 | 55.91169 | -8.03012 | 36112 ft | 449 kts | 316° |
| 2026-05-04 09:46 | 55.95601 | -8.10767 | 36111 ft | 449 kts | 316° |
| 2026-05-04 09:47 | 56.00101 | -8.18521 | 36111 ft | 449 kts | 316° |
| 2026-05-04 09:49 | 56.17944 | -8.49772 | 36112 ft | 448 kts | 315° |
| 2026-05-04 09:51 | 56.33443 | -8.77401 | 36090 ft | 447 kts | 315° |
| 2026-05-04 09:51 | 56.37825 | -8.85275 | 36086 ft | 447 kts | 314° |
| 2026-05-04 09:52 | 56.42235 | -8.93224 | 36082 ft | 447 kts | 314° |
| 2026-05-04 09:52 | 56.46636 | -9.01188 | 36079 ft | 448 kts | 314° |
| 2026-05-04 09:53 | 56.51028 | -9.09162 | 36077 ft | 447 kts | 314° |
| 2026-05-04 09:53 | 56.54673 | -9.15801 | 36076 ft | 447 kts | 314° |
| 2026-05-04 09:54 | 56.59058 | -9.23812 | 36074 ft | 447 kts | 314° |
| 2026-05-04 09:54 | 56.63409 | -9.31789 | 36073 ft | 447 kts | 314° |
| 2026-05-04 09:55 | 56.67776 | -9.39825 | 36071 ft | 447 kts | 314° |
| 2026-05-04 09:55 | 56.72133 | -9.47870 | 36070 ft | 446 kts | 313° |
| 2026-05-04 09:56 | 56.76491 | -9.55945 | 36067 ft | 446 kts | 313° |
| 2026-05-04 09:56 | 56.80878 | -9.63984 | 36065 ft | 447 kts | 313° |
| 2026-05-04 09:57 | 56.85234 | -9.72098 | 36064 ft | 447 kts | 313° |
| 2026-05-04 09:57 | 56.89554 | -9.80237 | 36064 ft | 446 kts | 313° |
| 2026-05-04 09:58 | 56.93841 | -9.88339 | 36063 ft | 445 kts | 313° |
| 2026-05-04 09:58 | 56.98124 | -9.96512 | 36061 ft | 444 kts | 310° |
| 2026-05-04 10:00 | 57.07904 | -10.31596 | 36064 ft | 441 kts | 293° |
| 2026-05-04 10:00 | 57.09148 | -10.36760 | 36064 ft | 441 kts | 293° |
| 2026-05-04 10:04 | 57.26779 | -11.08726 | 36067 ft | 440 kts | 293° |
| 2026-05-04 10:04 | 57.29263 | -11.19084 | 36068 ft | 440 kts | 293° |
| 2026-05-04 10:05 | 57.31736 | -11.29445 | 36068 ft | 440 kts | 292° |
| 2026-05-04 10:05 | 57.34194 | -11.39799 | 36069 ft | 439 kts | 292° |
| 2026-05-04 10:06 | 57.36627 | -11.50095 | 36070 ft | 439 kts | 292° |
| 2026-05-04 10:06 | 57.39067 | -11.60469 | 36071 ft | 438 kts | 292° |
| 2026-05-04 10:08 | 57.47503 | -11.96737 | 36074 ft | 437 kts | 291° |
| 2026-05-04 10:08 | 57.49896 | -12.07138 | 36074 ft | 437 kts | 291° |
| 2026-05-04 10:09 | 57.52279 | -12.17546 | 36075 ft | 437 kts | 291° |
| 2026-05-04 10:09 | 57.54650 | -12.27954 | 36077 ft | 437 kts | 291° |
| 2026-05-04 10:10 | 57.57016 | -12.38386 | 36075 ft | 437 kts | 291° |
| 2026-05-04 10:10 | 57.59371 | -12.48830 | 36074 ft | 437 kts | 291° |
| 2026-05-04 10:11 | 57.61708 | -12.59237 | 36074 ft | 438 kts | 291° |
| 2026-05-04 10:11 | 57.64050 | -12.69723 | 36074 ft | 438 kts | 291° |
| 2026-05-04 10:12 | 57.66387 | -12.80239 | 36074 ft | 438 kts | 291° |
| 2026-05-04 10:12 | 57.68715 | -12.90767 | 36075 ft | 438 kts | 291° |
| 2026-05-04 10:13 | 57.71021 | -13.01245 | 36075 ft | 438 kts | 291° |
| 2026-05-04 10:13 | 57.73333 | -13.11810 | 36076 ft | 438 kts | 291° |
| 2026-05-04 10:14 | 57.75636 | -13.22381 | 36076 ft | 438 kts | 291° |
| 2026-05-04 10:16 | 57.84740 | -13.64719 | 36076 ft | 437 kts | 290° |
| 2026-05-04 10:16 | 57.86994 | -13.75337 | 36077 ft | 437 kts | 290° |
| 2026-05-04 10:17 | 57.89237 | -13.85955 | 36077 ft | 436 kts | 290° |
| 2026-05-04 10:19 | 57.98091 | -14.28433 | 36078 ft | 436 kts | 290° |
| 2026-05-04 10:19 | 58.00288 | -14.39109 | 36080 ft | 437 kts | 290° |
| 2026-05-04 10:20 | 58.02463 | -14.49739 | 36125 ft | 436 kts | 290° |
| 2026-05-04 10:20 | 58.04639 | -14.60430 | 36127 ft | 436 kts | 290° |
| 2026-05-04 10:21 | 58.06806 | -14.71133 | 36127 ft | 436 kts | 290° |
| 2026-05-04 10:21 | 58.08965 | -14.81850 | 36127 ft | 436 kts | 290° |
| 2026-05-04 10:22 | 58.12185 | -14.97945 | 36127 ft | 436 kts | 290° |
| 2026-05-04 10:23 | 58.14305 | -15.08620 | 36126 ft | 436 kts | 290° |
| 2026-05-04 10:25 | 58.22754 | -15.51726 | 36121 ft | 436 kts | 289° |
| 2026-05-04 10:25 | 58.24833 | -15.62482 | 36120 ft | 436 kts | 289° |
| 2026-05-04 10:26 | 58.26916 | -15.73314 | 36120 ft | 436 kts | 289° |
| 2026-05-04 10:26 | 58.28989 | -15.84160 | 36120 ft | 437 kts | 289° |
| 2026-05-04 10:27 | 58.31057 | -15.95034 | 36119 ft | 437 kts | 289° |
| 2026-05-04 10:27 | 58.33112 | -16.05908 | 36119 ft | 437 kts | 289° |
| 2026-05-04 10:28 | 58.35161 | -16.16807 | 36119 ft | 437 kts | 289° |
| 2026-05-04 10:28 | 58.37198 | -16.27707 | 36118 ft | 437 kts | 289° |
| 2026-05-04 10:29 | 58.39228 | -16.38630 | 36118 ft | 437 kts | 289° |
| 2026-05-04 10:29 | 58.41240 | -16.49515 | 36117 ft | 438 kts | 289° |
| 2026-05-04 10:30 | 58.43256 | -16.60489 | 36117 ft | 438 kts | 289° |
| 2026-05-04 10:30 | 58.45263 | -16.71482 | 36116 ft | 438 kts | 289° |
| 2026-05-04 10:31 | 58.47259 | -16.82470 | 36116 ft | 438 kts | 288° |
| 2026-05-04 10:32 | 58.54179 | -17.21087 | 36115 ft | 439 kts | 288° |
| 2026-05-04 10:33 | 58.56128 | -17.32111 | 36115 ft | 439 kts | 288° |
| 2026-05-04 10:33 | 58.58078 | -17.43202 | 36115 ft | 439 kts | 288° |
| 2026-05-04 10:34 | 58.60022 | -17.54327 | 36114 ft | 439 kts | 288° |
| 2026-05-04 10:34 | 58.61955 | -17.65454 | 36113 ft | 440 kts | 288° |
| 2026-05-04 10:35 | 58.63881 | -17.76614 | 36114 ft | 440 kts | 288° |
| 2026-05-04 10:35 | 58.65796 | -17.87784 | 36113 ft | 440 kts | 288° |
| 2026-05-04 10:36 | 58.67702 | -17.98965 | 36113 ft | 440 kts | 287° |
| 2026-05-04 10:36 | 58.69603 | -18.10179 | 36112 ft | 441 kts | 287° |
| 2026-05-04 10:37 | 58.71483 | -18.21346 | 36112 ft | 441 kts | 287° |
| 2026-05-04 10:37 | 58.73365 | -18.32595 | 36112 ft | 441 kts | 287° |
| 2026-05-04 10:39 | 58.79887 | -18.72126 | 36111 ft | 442 kts | 287° |
| 2026-05-04 10:40 | 58.81718 | -18.83385 | 36111 ft | 442 kts | 287° |
| 2026-05-04 10:40 | 58.83551 | -18.94732 | 36111 ft | 442 kts | 287° |
| 2026-05-04 10:41 | 58.85373 | -19.06077 | 36110 ft | 442 kts | 287° |
| 2026-05-04 10:41 | 58.87183 | -19.17426 | 36110 ft | 442 kts | 287° |
| 2026-05-04 10:42 | 58.88985 | -19.28803 | 36110 ft | 442 kts | 287° |
| 2026-05-04 10:42 | 58.90769 | -19.40126 | 36109 ft | 443 kts | 287° |
| 2026-05-04 10:43 | 58.92628 | -19.51509 | 36104 ft | 443 kts | 287° |
| 2026-05-04 10:45 | 58.99305 | -19.95387 | 36124 ft | 443 kts | 286° |
| 2026-05-04 10:45 | 59.01476 | -20.06569 | 36124 ft | 443 kts | 293° |
| 2026-05-04 10:46 | 59.04144 | -20.17378 | 36123 ft | 444 kts | 296° |
| 2026-05-04 10:46 | 59.06897 | -20.28119 | 36123 ft | 444 kts | 295° |
| 2026-05-04 10:47 | 59.09586 | -20.38908 | 36134 ft | 444 kts | 295° |
| 2026-05-04 10:47 | 59.12238 | -20.49742 | 36134 ft | 444 kts | 295° |
| 2026-05-04 10:49 | 59.22951 | -20.93055 | 36134 ft | 443 kts | 295° |
| 2026-05-04 10:50 | 59.25587 | -21.03946 | 36135 ft | 443 kts | 295° |
| 2026-05-04 10:52 | 59.36013 | -21.47709 | 36136 ft | 443 kts | 294° |
| 2026-05-04 10:52 | 59.38596 | -21.58701 | 36136 ft | 443 kts | 294° |
| 2026-05-04 10:54 | 59.48789 | -22.02621 | 36137 ft | 441 kts | 294° |
| 2026-05-04 10:56 | 59.58851 | -22.46884 | 36137 ft | 443 kts | 294° |
| 2026-05-04 10:57 | 59.61348 | -22.58013 | 36137 ft | 443 kts | 294° |
| 2026-05-04 10:57 | 59.63836 | -22.69162 | 36189 ft | 443 kts | 293° |
| 2026-05-04 10:58 | 59.66297 | -22.80246 | 36203 ft | 444 kts | 293° |
| 2026-05-04 10:58 | 59.68771 | -22.91448 | 36203 ft | 444 kts | 293° |
| 2026-05-04 10:59 | 59.71243 | -23.02705 | 36204 ft | 444 kts | 293° |
| 2026-05-04 10:59 | 59.73686 | -23.13884 | 36204 ft | 445 kts | 293° |
| 2026-05-04 11:00 | 59.76137 | -23.25164 | 36204 ft | 445 kts | 293° |
| 2026-05-04 11:02 | 59.85850 | -23.70468 | 36191 ft | 445 kts | 292° |
| 2026-05-04 11:05 | 60.03614 | -24.56008 | 36192 ft | 444 kts | 292° |
| 2026-05-04 11:06 | 60.05934 | -24.67449 | 36193 ft | 443 kts | 292° |
| 2026-05-04 11:06 | 60.08230 | -24.78837 | 36216 ft | 443 kts | 292° |
| 2026-05-04 11:10 | 60.24097 | -25.59354 | 36220 ft | 445 kts | 291° |
| 2026-05-04 11:12 | 60.32976 | -26.05886 | 36223 ft | 445 kts | 291° |
| 2026-05-04 11:12 | 60.35179 | -26.17606 | 36223 ft | 445 kts | 290° |
| 2026-05-04 11:13 | 60.37369 | -26.29323 | 36223 ft | 445 kts | 290° |
| 2026-05-04 11:13 | 60.39530 | -26.40959 | 36223 ft | 444 kts | 290° |
| 2026-05-04 11:14 | 60.41695 | -26.52686 | 36224 ft | 444 kts | 290° |
| 2026-05-04 11:16 | 60.50218 | -26.99562 | 36226 ft | 443 kts | 290° |
| 2026-05-04 11:16 | 60.52319 | -27.11297 | 36226 ft | 443 kts | 290° |
| 2026-05-04 11:17 | 60.54414 | -27.23074 | 36227 ft | 444 kts | 290° |
| 2026-05-04 11:19 | 60.62701 | -27.70385 | 36230 ft | 445 kts | 289° |
| 2026-05-04 11:19 | 60.64749 | -27.82271 | 36231 ft | 445 kts | 289° |
| 2026-05-04 11:20 | 60.66793 | -27.94200 | 36231 ft | 446 kts | 289° |
| 2026-05-04 11:20 | 60.68815 | -28.06085 | 36232 ft | 445 kts | 289° |
| 2026-05-04 11:22 | 60.76831 | -28.53961 | 36234 ft | 445 kts | 288° |
| 2026-05-04 11:23 | 60.78797 | -28.65899 | 36235 ft | 445 kts | 288° |
| 2026-05-04 11:25 | 60.85608 | -29.07883 | 36238 ft | 444 kts | 288° |
| 2026-05-04 11:25 | 60.87532 | -29.19922 | 36239 ft | 444 kts | 288° |
| 2026-05-04 11:27 | 60.96094 | -29.74246 | 36242 ft | 444 kts | 287° |
| 2026-05-04 11:28 | 60.97924 | -29.86308 | 36269 ft | 444 kts | 287° |
| 2026-05-04 11:28 | 60.99696 | -29.98483 | 36282 ft | 444 kts | 283° |
| 2026-05-04 11:29 | 61.00626 | -30.11060 | 36281 ft | 445 kts | 276° |
| 2026-05-04 11:29 | 61.01031 | -30.23799 | 36293 ft | 445 kts | 273° |
| 2026-05-04 11:33 | 61.03691 | -31.13003 | 37464 ft | 446 kts | 274° |
| 2026-05-04 11:33 | 61.03878 | -31.19396 | 37684 ft | 446 kts | 274° |
| 2026-05-04 11:33 | 61.04059 | -31.25773 | 37903 ft | 446 kts | 274° |
| 2026-05-04 11:34 | 61.04237 | -31.32173 | 38121 ft | 446 kts | 274° |
| 2026-05-04 11:34 | 61.04411 | -31.38557 | 38256 ft | 446 kts | 274° |
| 2026-05-04 11:34 | 61.04749 | -31.51358 | 38263 ft | 447 kts | 274° |
| 2026-05-04 11:35 | 61.05074 | -31.64171 | 38263 ft | 447 kts | 273° |
| 2026-05-04 11:35 | 61.05386 | -31.76982 | 38263 ft | 446 kts | 273° |
| 2026-05-04 11:36 | 61.05684 | -31.89699 | 38264 ft | 446 kts | 273° |
| 2026-05-04 11:36 | 61.05972 | -32.02486 | 38264 ft | 446 kts | 273° |
| 2026-05-04 11:37 | 61.06202 | -32.13120 | 38263 ft | 446 kts | 273° |
| 2026-05-04 11:37 | 61.06468 | -32.25932 | 38263 ft | 446 kts | 273° |
| 2026-05-04 11:38 | 61.06721 | -32.38742 | 38264 ft | 446 kts | 272° |
| 2026-05-04 11:38 | 61.06961 | -32.51458 | 38264 ft | 446 kts | 272° |
| 2026-05-04 11:39 | 61.07191 | -32.64298 | 38265 ft | 447 kts | 272° |
| 2026-05-04 11:41 | 61.07899 | -33.09205 | 38265 ft | 447 kts | 272° |
| 2026-05-04 11:41 | 61.08073 | -33.22044 | 38265 ft | 447 kts | 272° |
| 2026-05-04 11:42 | 61.08237 | -33.34912 | 38266 ft | 447 kts | 272° |
| 2026-05-04 11:42 | 61.08387 | -33.47742 | 38266 ft | 447 kts | 271° |
| 2026-05-04 11:43 | 61.08524 | -33.60502 | 38266 ft | 447 kts | 271° |
| 2026-05-04 11:43 | 61.08651 | -33.73349 | 38265 ft | 447 kts | 271° |
| 2026-05-04 11:44 | 61.08765 | -33.86201 | 38267 ft | 447 kts | 271° |
| 2026-05-04 11:44 | 61.08868 | -33.99062 | 38266 ft | 447 kts | 271° |
| 2026-05-04 11:45 | 61.08957 | -34.11918 | 38266 ft | 447 kts | 271° |
| 2026-05-04 11:45 | 61.09035 | -34.24777 | 38265 ft | 447 kts | 271° |
| 2026-05-04 11:46 | 61.09100 | -34.37636 | 38267 ft | 447 kts | 271° |
| 2026-05-04 11:46 | 61.09153 | -34.50416 | 38266 ft | 447 kts | 271° |
| 2026-05-04 11:47 | 61.09193 | -34.63280 | 38266 ft | 447 kts | 271° |
| 2026-05-04 11:47 | 61.09222 | -34.76149 | 38266 ft | 447 kts | 270° |
| 2026-05-04 11:48 | 61.09239 | -34.89017 | 38266 ft | 447 kts | 270° |
| 2026-05-04 11:48 | 61.09243 | -35.01789 | 38266 ft | 448 kts | 270° |
| 2026-05-04 11:49 | 61.09235 | -35.14746 | 38266 ft | 448 kts | 270° |
| 2026-05-04 11:49 | 61.09215 | -35.27546 | 38266 ft | 448 kts | 270° |
| 2026-05-04 11:50 | 61.09183 | -35.40431 | 38266 ft | 448 kts | 270° |
| 2026-05-04 11:50 | 61.09138 | -35.53309 | 38266 ft | 448 kts | 270° |
| 2026-05-04 11:51 | 61.09081 | -35.66214 | 38266 ft | 448 kts | 270° |
| 2026-05-04 11:51 | 61.09012 | -35.79090 | 38266 ft | 448 kts | 270° |
| 2026-05-04 11:52 | 61.08931 | -35.91978 | 38266 ft | 448 kts | 269° |
| 2026-05-04 11:52 | 61.08838 | -36.04769 | 38267 ft | 448 kts | 269° |
| 2026-05-04 11:53 | 61.08732 | -36.17644 | 38266 ft | 448 kts | 269° |
| 2026-05-04 11:53 | 61.08614 | -36.30567 | 38266 ft | 448 kts | 269° |
| 2026-05-04 11:55 | 61.08020 | -36.82017 | 38265 ft | 448 kts | 269° |
| 2026-05-04 11:56 | 61.07840 | -36.94913 | 38265 ft | 449 kts | 269° |
| 2026-05-04 11:56 | 61.07648 | -37.07800 | 38265 ft | 449 kts | 269° |
| 2026-05-04 11:57 | 61.07444 | -37.20700 | 38227 ft | 450 kts | 268° |
| 2026-05-04 11:57 | 61.07227 | -37.33613 | 38215 ft | 450 kts | 268° |
| 2026-05-04 11:58 | 61.06998 | -37.46525 | 38213 ft | 450 kts | 268° |
| 2026-05-04 11:58 | 61.06757 | -37.59439 | 38213 ft | 450 kts | 268° |
| 2026-05-04 11:59 | 61.06503 | -37.72353 | 38213 ft | 450 kts | 268° |
| 2026-05-04 11:59 | 61.06239 | -37.85183 | 38200 ft | 450 kts | 268° |
| 2026-05-04 12:00 | 61.05960 | -37.98097 | 38198 ft | 450 kts | 268° |
| 2026-05-04 12:00 | 61.05670 | -38.10959 | 38197 ft | 450 kts | 268° |
| 2026-05-04 12:01 | 61.05368 | -38.23866 | 38196 ft | 450 kts | 268° |
| 2026-05-04 12:02 | 61.04209 | -38.69044 | 38192 ft | 450 kts | 267° |
| 2026-05-04 12:03 | 61.03851 | -38.81940 | 38191 ft | 450 kts | 267° |
| 2026-05-04 12:03 | 61.03480 | -38.94838 | 38190 ft | 450 kts | 267° |
| 2026-05-04 12:04 | 61.03097 | -39.07731 | 38189 ft | 450 kts | 266° |
| 2026-05-04 12:04 | 61.02705 | -39.20529 | 38188 ft | 450 kts | 266° |
| 2026-05-04 12:05 | 61.02299 | -39.33424 | 38187 ft | 450 kts | 266° |
| 2026-05-04 12:05 | 61.01967 | -39.46323 | 38187 ft | 450 kts | 266° |
| 2026-05-04 12:06 | 61.01526 | -39.59203 | 38186 ft | 450 kts | 266° |
| 2026-05-04 12:06 | 61.01049 | -39.72056 | 38184 ft | 449 kts | 266° |
| 2026-05-04 12:07 | 61.00567 | -39.84889 | 38183 ft | 448 kts | 266° |
| 2026-05-04 12:07 | 61.00049 | -39.97617 | 38183 ft | 448 kts | 263° |
| 2026-05-04 12:08 | 60.98683 | -40.10177 | 38181 ft | 449 kts | 255° |
| 2026-05-04 12:08 | 60.96754 | -40.22429 | 38180 ft | 450 kts | 252° |
| 2026-05-04 12:09 | 60.94700 | -40.34584 | 38180 ft | 450 kts | 252° |
| 2026-05-04 12:09 | 60.92692 | -40.46782 | 38179 ft | 450 kts | 253° |
| 2026-05-04 12:10 | 60.90699 | -40.59001 | 38178 ft | 450 kts | 253° |
| 2026-05-04 12:10 | 60.88735 | -40.71213 | 38176 ft | 450 kts | 254° |
| 2026-05-04 12:11 | 60.86897 | -40.83416 | 38176 ft | 450 kts | 254° |
| 2026-05-04 12:11 | 60.84995 | -40.95648 | 38175 ft | 450 kts | 253° |
| 2026-05-04 12:12 | 60.83049 | -41.07849 | 38175 ft | 450 kts | 253° |
| 2026-05-04 12:12 | 60.81083 | -41.20016 | 38174 ft | 450 kts | 253° |
| 2026-05-04 12:14 | 60.73080 | -41.68538 | 38172 ft | 450 kts | 253° |
| 2026-05-04 12:15 | 60.71060 | -41.80574 | 38172 ft | 450 kts | 253° |
| 2026-05-04 12:15 | 60.69020 | -41.92643 | 38171 ft | 450 kts | 253° |
| 2026-05-04 12:16 | 60.66967 | -42.04717 | 38171 ft | 449 kts | 253° |
| 2026-05-04 12:16 | 60.64905 | -42.16761 | 38170 ft | 449 kts | 253° |
| 2026-05-04 12:17 | 60.62847 | -42.28707 | 38170 ft | 449 kts | 252° |
| 2026-05-04 12:17 | 60.60768 | -42.40700 | 38170 ft | 449 kts | 252° |
| 2026-05-04 12:18 | 60.58673 | -42.52704 | 38170 ft | 449 kts | 252° |
| 2026-05-04 12:18 | 60.56572 | -42.64660 | 38170 ft | 449 kts | 252° |
| 2026-05-04 12:19 | 60.54464 | -42.76588 | 38169 ft | 448 kts | 252° |
| 2026-05-04 12:19 | 60.52343 | -42.88511 | 38169 ft | 448 kts | 252° |
| 2026-05-04 12:20 | 60.50217 | -43.00383 | 38169 ft | 448 kts | 252° |
| 2026-05-04 12:20 | 60.48095 | -43.12168 | 38169 ft | 448 kts | 252° |
| 2026-05-04 12:21 | 60.45944 | -43.24031 | 38169 ft | 447 kts | 252° |
| 2026-05-04 12:21 | 60.43785 | -43.35867 | 38168 ft | 446 kts | 252° |
| 2026-05-04 12:22 | 60.41633 | -43.47596 | 38169 ft | 446 kts | 252° |
| 2026-05-04 12:22 | 60.39459 | -43.59369 | 38168 ft | 446 kts | 252° |
| 2026-05-04 12:23 | 60.37279 | -43.71103 | 38168 ft | 446 kts | 252° |
| 2026-05-04 12:23 | 60.35088 | -43.82827 | 38168 ft | 446 kts | 252° |
| 2026-05-04 12:24 | 60.32902 | -43.94456 | 38168 ft | 446 kts | 252° |
| 2026-05-04 12:24 | 60.30687 | -44.06163 | 38168 ft | 445 kts | 252° |
| 2026-05-04 12:25 | 60.28469 | -44.17819 | 38168 ft | 445 kts | 252° |
| 2026-05-04 12:25 | 60.26242 | -44.29455 | 38168 ft | 445 kts | 252° |
| 2026-05-04 12:26 | 60.24004 | -44.41078 | 38168 ft | 445 kts | 251° |
| 2026-05-04 12:26 | 60.21753 | -44.52699 | 38168 ft | 445 kts | 251° |
| 2026-05-04 12:27 | 60.19506 | -44.64229 | 38168 ft | 445 kts | 251° |
| 2026-05-04 12:27 | 60.17235 | -44.75816 | 38167 ft | 445 kts | 251° |
| 2026-05-04 12:28 | 60.14957 | -44.87373 | 38167 ft | 445 kts | 251° |
| 2026-05-04 12:28 | 60.13054 | -44.96977 | 38168 ft | 445 kts | 251° |
| 2026-05-04 12:29 | 60.10753 | -45.08524 | 38167 ft | 445 kts | 251° |
| 2026-05-04 12:29 | 60.08444 | -45.20052 | 38167 ft | 444 kts | 251° |
| 2026-05-04 12:30 | 60.06128 | -45.31543 | 38166 ft | 444 kts | 251° |
| 2026-05-04 12:30 | 60.03805 | -45.43007 | 38166 ft | 445 kts | 251° |
| 2026-05-04 12:31 | 60.01484 | -45.54394 | 38157 ft | 445 kts | 251° |
| 2026-05-04 12:31 | 59.99141 | -45.65824 | 38157 ft | 444 kts | 251° |
| 2026-05-04 12:32 | 59.95611 | -45.82923 | 38156 ft | 444 kts | 251° |
| 2026-05-04 12:33 | 59.93239 | -45.94336 | 38155 ft | 444 kts | 250° |
| 2026-05-04 12:33 | 59.90863 | -46.05705 | 38154 ft | 444 kts | 250° |
| 2026-05-04 12:34 | 59.88490 | -46.16993 | 38153 ft | 444 kts | 250° |
| 2026-05-04 12:34 | 59.86095 | -46.28329 | 38151 ft | 444 kts | 250° |
| 2026-05-04 12:35 | 59.83691 | -46.39638 | 38150 ft | 443 kts | 250° |
| 2026-05-04 12:35 | 59.81282 | -46.50915 | 38149 ft | 442 kts | 250° |
| 2026-05-04 12:36 | 59.78887 | -46.62063 | 38147 ft | 441 kts | 250° |
| 2026-05-04 12:36 | 59.76474 | -46.73240 | 38144 ft | 440 kts | 250° |
| 2026-05-04 12:37 | 59.74056 | -46.84375 | 38144 ft | 439 kts | 249° |
| 2026-05-04 12:37 | 59.71631 | -46.95481 | 38142 ft | 438 kts | 249° |
| 2026-05-04 12:38 | 59.69206 | -47.06531 | 38140 ft | 437 kts | 249° |
| 2026-05-04 12:38 | 59.66774 | -47.17556 | 38138 ft | 436 kts | 249° |
| 2026-05-04 12:39 | 59.64340 | -47.28530 | 38136 ft | 436 kts | 249° |
| 2026-05-04 12:39 | 59.61908 | -47.39441 | 38133 ft | 435 kts | 249° |
| 2026-05-04 12:40 | 59.59458 | -47.50372 | 38132 ft | 435 kts | 249° |
| 2026-05-04 12:40 | 59.57000 | -47.61288 | 38130 ft | 435 kts | 249° |
| 2026-05-04 12:41 | 59.54531 | -47.72190 | 38128 ft | 434 kts | 248° |
| 2026-05-04 12:41 | 59.52073 | -47.82994 | 38126 ft | 435 kts | 248° |
| 2026-05-04 12:42 | 59.49591 | -47.93845 | 38123 ft | 435 kts | 248° |
| 2026-05-04 12:42 | 59.47098 | -48.04692 | 38121 ft | 435 kts | 248° |
| 2026-05-04 12:43 | 59.44597 | -48.15517 | 38118 ft | 434 kts | 248° |
| 2026-05-04 12:43 | 59.42089 | -48.26313 | 38115 ft | 434 kts | 248° |
| 2026-05-04 12:44 | 59.39570 | -48.37108 | 38113 ft | 434 kts | 247° |
| 2026-05-04 12:44 | 59.37059 | -48.47812 | 38110 ft | 434 kts | 247° |
| 2026-05-04 12:45 | 59.34530 | -48.58538 | 38107 ft | 434 kts | 247° |
| 2026-05-04 12:45 | 59.31992 | -48.69257 | 38105 ft | 433 kts | 247° |
| 2026-05-04 12:46 | 59.29446 | -48.79947 | 38102 ft | 433 kts | 246° |
| 2026-05-04 12:46 | 59.26895 | -48.90609 | 38099 ft | 433 kts | 246° |
| 2026-05-04 12:47 | 59.24354 | -49.01179 | 38096 ft | 432 kts | 246° |
| 2026-05-04 12:47 | 59.21789 | -49.11800 | 38089 ft | 432 kts | 246° |
| 2026-05-04 12:48 | 59.19217 | -49.22394 | 38087 ft | 432 kts | 246° |
| 2026-05-04 12:48 | 59.16633 | -49.32989 | 38083 ft | 432 kts | 245° |
| 2026-05-04 12:49 | 59.14040 | -49.43576 | 38080 ft | 432 kts | 246° |
| 2026-05-04 12:49 | 59.11525 | -49.54102 | 38076 ft | 431 kts | 245° |
| 2026-05-04 12:50 | 59.08916 | -49.64622 | 38072 ft | 431 kts | 245° |
| 2026-05-04 12:50 | 59.06284 | -49.75094 | 38069 ft | 431 kts | 245° |
| 2026-05-04 12:51 | 59.03639 | -49.85582 | 38065 ft | 432 kts | 245° |
| 2026-05-04 12:51 | 59.00996 | -49.96051 | 38061 ft | 432 kts | 245° |
| 2026-05-04 12:52 | 58.98772 | -50.06800 | 38057 ft | 432 kts | 251° |
| 2026-05-04 12:52 | 58.97022 | -50.17979 | 38054 ft | 434 kts | 253° |
| 2026-05-04 12:53 | 58.95340 | -50.29212 | 38050 ft | 434 kts | 253° |
| 2026-05-04 12:53 | 58.93591 | -50.40422 | 38047 ft | 435 kts | 252° |
| 2026-05-04 12:54 | 58.91802 | -50.51621 | 38043 ft | 434 kts | 252° |
| 2026-05-04 12:54 | 58.89996 | -50.62771 | 38039 ft | 434 kts | 252° |
| 2026-05-04 12:55 | 58.88282 | -50.73969 | 38035 ft | 435 kts | 253° |
| 2026-05-04 12:55 | 58.86563 | -50.85125 | 38031 ft | 435 kts | 252° |
| 2026-05-04 12:56 | 58.84785 | -50.96318 | 38027 ft | 436 kts | 252° |
| 2026-05-04 12:56 | 58.82979 | -51.07500 | 38023 ft | 436 kts | 251° |
| 2026-05-04 12:57 | 58.81156 | -51.18674 | 38019 ft | 437 kts | 251° |
| 2026-05-04 12:57 | 58.79312 | -51.29885 | 38015 ft | 438 kts | 251° |
| 2026-05-04 12:58 | 58.77471 | -51.41000 | 38011 ft | 438 kts | 251° |
| 2026-05-04 12:58 | 58.75602 | -51.52218 | 38006 ft | 439 kts | 250° |
| 2026-05-04 12:59 | 58.73719 | -51.63445 | 38002 ft | 440 kts | 250° |
| 2026-05-04 12:59 | 58.71825 | -51.74664 | 37969 ft | 442 kts | 250° |
| 2026-05-04 13:00 | 58.69916 | -51.85897 | 37919 ft | 442 kts | 250° |
| 2026-05-04 13:00 | 58.68010 | -51.97049 | 37913 ft | 442 kts | 250° |
| 2026-05-04 13:01 | 58.66075 | -52.08304 | 37910 ft | 443 kts | 249° |
| 2026-05-04 13:01 | 58.64123 | -52.19585 | 37905 ft | 444 kts | 249° |
| 2026-05-04 13:02 | 58.62163 | -52.30839 | 37903 ft | 444 kts | 249° |
| 2026-05-04 13:02 | 58.60196 | -52.42072 | 37900 ft | 444 kts | 249° |
| 2026-05-04 13:03 | 58.58231 | -52.53215 | 37897 ft | 444 kts | 249° |
| 2026-05-04 13:03 | 58.56243 | -52.64424 | 37893 ft | 444 kts | 249° |
| 2026-05-04 13:04 | 58.54248 | -52.75612 | 37883 ft | 444 kts | 248° |
| 2026-05-04 13:04 | 58.52239 | -52.86803 | 37838 ft | 444 kts | 248° |
| 2026-05-04 13:05 | 58.50224 | -52.97968 | 37833 ft | 444 kts | 248° |
| 2026-05-04 13:05 | 58.48195 | -53.09136 | 37830 ft | 445 kts | 248° |
| 2026-05-04 13:06 | 58.46165 | -53.20251 | 37826 ft | 446 kts | 248° |
| 2026-05-04 13:06 | 58.44108 | -53.31441 | 37823 ft | 446 kts | 248° |
| 2026-05-04 13:07 | 58.42042 | -53.42619 | 37820 ft | 447 kts | 247° |
| 2026-05-04 13:07 | 58.39958 | -53.53824 | 37817 ft | 448 kts | 247° |
| 2026-05-04 13:08 | 58.37860 | -53.65041 | 37813 ft | 450 kts | 247° |
| 2026-05-04 13:08 | 58.35746 | -53.76277 | 37810 ft | 451 kts | 246° |
| 2026-05-04 13:09 | 58.33632 | -53.87447 | 37807 ft | 452 kts | 246° |
| 2026-05-04 13:09 | 58.31488 | -53.98713 | 37803 ft | 453 kts | 246° |
| 2026-05-04 13:10 | 58.29329 | -54.09988 | 37800 ft | 453 kts | 246° |
| 2026-05-04 13:10 | 58.27163 | -54.21239 | 37797 ft | 453 kts | 246° |
| 2026-05-04 13:11 | 58.25002 | -54.32395 | 37793 ft | 452 kts | 246° |
| 2026-05-04 13:11 | 58.22823 | -54.43582 | 37789 ft | 452 kts | 246° |
| 2026-05-04 13:12 | 58.20636 | -54.54745 | 37786 ft | 452 kts | 246° |
| 2026-05-04 13:12 | 58.18438 | -54.65902 | 37755 ft | 451 kts | 246° |
| 2026-05-04 13:13 | 58.16237 | -54.77009 | 37743 ft | 450 kts | 246° |
| 2026-05-04 13:13 | 58.14044 | -54.88018 | 37739 ft | 450 kts | 245° |
| 2026-05-04 13:14 | 58.11825 | -54.99092 | 37736 ft | 450 kts | 245° |
| 2026-05-04 13:14 | 58.09594 | -55.10167 | 37733 ft | 451 kts | 245° |
| 2026-05-04 13:15 | 58.07352 | -55.21238 | 37729 ft | 450 kts | 245° |
| 2026-05-04 13:15 | 58.05101 | -55.32285 | 37727 ft | 451 kts | 245° |
| 2026-05-04 13:16 | 58.02838 | -55.43333 | 37724 ft | 452 kts | 245° |
| 2026-05-04 13:16 | 58.00560 | -55.54395 | 37720 ft | 452 kts | 245° |
| 2026-05-04 13:17 | 57.98281 | -55.65398 | 37718 ft | 454 kts | 245° |
| 2026-05-04 13:17 | 57.95967 | -55.76513 | 37715 ft | 455 kts | 245° |
| 2026-05-04 13:18 | 57.94036 | -55.85741 | 37712 ft | 456 kts | 244° |
| 2026-05-04 13:18 | 57.91703 | -55.96832 | 37672 ft | 454 kts | 244° |
| 2026-05-04 13:19 | 57.89370 | -56.07867 | 37669 ft | 454 kts | 244° |
| 2026-05-04 13:19 | 57.87025 | -56.18897 | 37668 ft | 454 kts | 244° |
| 2026-05-04 13:20 | 57.84682 | -56.29858 | 37666 ft | 455 kts | 244° |
| 2026-05-04 13:20 | 57.82317 | -56.40862 | 37665 ft | 455 kts | 244° |
| 2026-05-04 13:21 | 57.79936 | -56.51887 | 37664 ft | 455 kts | 244° |
| 2026-05-04 13:21 | 57.77545 | -56.62897 | 37663 ft | 456 kts | 243° |
| 2026-05-04 13:22 | 57.75154 | -56.73845 | 37661 ft | 457 kts | 243° |
| 2026-05-04 13:22 | 57.72735 | -56.84868 | 37660 ft | 458 kts | 243° |
| 2026-05-04 13:23 | 57.70304 | -56.95886 | 37659 ft | 458 kts | 243° |
| 2026-05-04 13:23 | 57.67861 | -57.06902 | 37660 ft | 459 kts | 243° |
| 2026-05-04 13:24 | 57.65407 | -57.17908 | 37660 ft | 459 kts | 243° |
| 2026-05-04 13:24 | 57.62944 | -57.28896 | 37659 ft | 459 kts | 242° |
| 2026-05-04 13:25 | 57.59253 | -57.45275 | 37657 ft | 459 kts | 243° |
| 2026-05-04 13:25 | 57.56816 | -57.56331 | 37656 ft | 460 kts | 242° |
| 2026-05-04 13:26 | 57.54301 | -57.67299 | 37655 ft | 460 kts | 242° |
| 2026-05-04 13:26 | 57.51778 | -57.78172 | 37654 ft | 459 kts | 242° |
| 2026-05-04 13:27 | 57.49241 | -57.89078 | 37654 ft | 459 kts | 242° |
| 2026-05-04 13:27 | 57.46925 | -58.00174 | 37651 ft | 463 kts | 250° |
| 2026-05-04 13:28 | 57.45964 | -58.12088 | 37653 ft | 471 kts | 260° |
| 2026-05-04 13:28 | 57.45561 | -58.24298 | 37653 ft | 474 kts | 261° |
| 2026-05-04 13:29 | 57.45111 | -58.36536 | 37654 ft | 476 kts | 260° |
| 2026-05-04 13:29 | 57.44588 | -58.48726 | 37654 ft | 476 kts | 260° |
| 2026-05-04 13:30 | 57.44027 | -58.60960 | 37654 ft | 475 kts | 259° |
| 2026-05-04 13:30 | 57.43542 | -58.73202 | 37654 ft | 476 kts | 261° |
| 2026-05-04 13:31 | 57.43066 | -58.85481 | 37655 ft | 476 kts | 260° |
| 2026-05-04 13:31 | 57.42530 | -58.97728 | 37655 ft | 476 kts | 259° |
| 2026-05-04 13:32 | 57.41968 | -59.09896 | 37656 ft | 476 kts | 259° |
| 2026-05-04 13:32 | 57.41386 | -59.22126 | 37674 ft | 475 kts | 259° |
| 2026-05-04 13:33 | 57.40792 | -59.34327 | 37760 ft | 475 kts | 259° |
| 2026-05-04 13:33 | 57.40185 | -59.46529 | 37771 ft | 476 kts | 259° |
| 2026-05-04 13:34 | 57.39564 | -59.58751 | 37773 ft | 476 kts | 259° |
| 2026-05-04 13:34 | 57.38932 | -59.70964 | 37775 ft | 475 kts | 259° |
| 2026-05-04 13:35 | 57.37964 | -59.89235 | 37778 ft | 474 kts | 259° |
| 2026-05-04 13:36 | 57.37309 | -60.01317 | 37780 ft | 474 kts | 258° |
| 2026-05-04 13:36 | 57.36638 | -60.13485 | 37775 ft | 475 kts | 258° |
| 2026-05-04 13:37 | 57.35953 | -60.25673 | 37744 ft | 475 kts | 258° |
| 2026-05-04 13:37 | 57.35256 | -60.37860 | 37745 ft | 475 kts | 258° |
| 2026-05-04 13:38 | 57.34552 | -60.49970 | 37746 ft | 476 kts | 258° |
| 2026-05-04 13:38 | 57.33830 | -60.62178 | 37747 ft | 476 kts | 258° |
| 2026-05-04 13:39 | 57.33096 | -60.74394 | 37748 ft | 477 kts | 258° |
| 2026-05-04 13:39 | 57.32350 | -60.86605 | 37749 ft | 477 kts | 258° |
| 2026-05-04 13:40 | 57.31595 | -60.98749 | 37750 ft | 477 kts | 258° |
| 2026-05-04 13:40 | 57.30825 | -61.10956 | 37752 ft | 478 kts | 257° |
| 2026-05-04 13:41 | 57.30043 | -61.23163 | 37752 ft | 478 kts | 257° |
| 2026-05-04 13:41 | 57.29246 | -61.35403 | 37753 ft | 478 kts | 257° |
| 2026-05-04 13:42 | 57.28038 | -61.53634 | 37755 ft | 478 kts | 257° |
| 2026-05-04 13:42 | 57.27214 | -61.65822 | 37754 ft | 478 kts | 257° |
| 2026-05-04 13:43 | 57.26376 | -61.78039 | 37758 ft | 479 kts | 257° |
| 2026-05-04 13:43 | 57.25527 | -61.90246 | 37757 ft | 479 kts | 257° |
| 2026-05-04 13:44 | 57.24667 | -62.02439 | 37758 ft | 479 kts | 257° |
| 2026-05-04 13:44 | 57.23869 | -62.14658 | 37759 ft | 479 kts | 257° |
| 2026-05-04 13:45 | 57.22979 | -62.26766 | 37757 ft | 480 kts | 256° |
| 2026-05-04 13:45 | 57.22051 | -62.38976 | 37757 ft | 480 kts | 256° |
| 2026-05-04 13:46 | 57.21119 | -62.51182 | 37756 ft | 480 kts | 256° |
| 2026-05-04 13:46 | 57.20587 | -62.63476 | 37757 ft | 486 kts | 266° |
| 2026-05-04 13:47 | 57.21724 | -62.75865 | 37758 ft | 494 kts | 278° |
| 2026-05-04 13:47 | 57.23524 | -62.88176 | 37757 ft | 499 kts | 279° |
| 2026-05-04 13:48 | 57.25231 | -63.00628 | 37759 ft | 501 kts | 278° |
| 2026-05-04 13:48 | 57.26829 | -63.13141 | 37759 ft | 500 kts | 278° |
| 2026-05-04 13:49 | 57.28393 | -63.25656 | 37758 ft | 499 kts | 278° |
| 2026-05-04 13:49 | 57.30055 | -63.38038 | 37762 ft | 499 kts | 278° |
| 2026-05-04 13:50 | 57.31671 | -63.50523 | 37761 ft | 499 kts | 278° |
| 2026-05-04 13:50 | 57.33238 | -63.63034 | 37760 ft | 499 kts | 277° |
| 2026-05-04 13:51 | 57.34783 | -63.75563 | 37762 ft | 499 kts | 277° |
| 2026-05-04 13:51 | 57.36313 | -63.88099 | 37763 ft | 499 kts | 277° |